createdAt,value
2018-02-17T00:01:53.388Z,14.53
2018-02-17T00:04:20.997Z,18.30
2018-02-17T00:06:48.751Z,16.47
2018-02-17T00:09:17.016Z,15.80
2018-02-17T00:11:44.697Z,14.37
2018-02-17T00:14:12.314Z,15.07
2018-02-17T00:16:39.914Z,15.33
2018-02-17T00:19:09.200Z,14.27
2018-02-17T00:21:37.116Z,14.20
2018-02-17T00:24:04.737Z,17.17
2018-02-17T00:26:32.466Z,16.10
2018-02-17T00:29:00.075Z,16.93
2018-02-17T00:31:28.093Z,17.40
2018-02-17T00:33:56.187Z,17.00
2018-02-17T00:36:23.845Z,18.00
2018-02-17T00:38:51.526Z,18.07
2018-02-17T00:41:19.115Z,18.30
2018-02-17T00:43:46.731Z,16.23
2018-02-17T00:46:14.352Z,17.90
2018-02-17T00:48:42.034Z,17.20
2018-02-17T00:51:09.688Z,17.40
2018-02-17T00:53:37.470Z,17.40
2018-02-17T00:56:05.278Z,15.40
2018-02-17T00:58:33.280Z,16.80
2018-02-17T01:01:00.939Z,16.00
2018-02-17T01:03:29.014Z,14.90
2018-02-17T01:05:56.608Z,16.43
2018-02-17T01:08:24.238Z,15.50
2018-02-17T01:10:52.306Z,14.70
2018-02-17T01:13:19.933Z,14.80
2018-02-17T01:15:47.540Z,12.13
2018-02-17T01:18:15.115Z,12.27
2018-02-17T01:20:42.730Z,14.73
2018-02-17T01:23:10.478Z,12.03
2018-02-17T01:25:38.113Z,18.13
2018-02-17T01:28:05.779Z,14.37
2018-02-17T01:30:33.432Z,15.83
2018-02-17T01:33:01.213Z,12.03
2018-02-17T01:35:29.217Z,14.63
2018-02-17T01:37:57.062Z,12.37
2018-02-17T01:40:24.740Z,13.87
2018-02-17T01:42:52.337Z,15.53
2018-02-17T01:45:20.028Z,14.10
2018-02-17T01:47:47.623Z,13.03
2018-02-17T01:50:27.184Z,13.70
2018-02-17T01:52:54.846Z,10.63
2018-02-17T01:55:23.878Z,10.43
2018-02-17T01:57:51.602Z,12.07
2018-02-17T02:00:19.306Z,12.97
2018-02-17T02:02:46.950Z,16.23
2018-02-17T02:05:15.136Z,15.63
2018-02-17T02:07:42.729Z,21.63
2018-02-17T02:10:10.318Z,14.93
2018-02-17T02:12:37.949Z,14.40
2018-02-17T02:15:06.471Z,14.50
2018-02-17T02:17:34.115Z,16.50
2018-02-17T02:20:01.828Z,15.10
2018-02-17T02:22:29.519Z,17.53
2018-02-17T02:24:57.118Z,17.10
2018-02-17T02:27:24.747Z,27.40
2018-02-17T02:29:52.344Z,13.50
2018-02-17T02:32:19.933Z,17.53
2018-02-17T02:34:47.587Z,21.73
2018-02-17T02:37:15.372Z,17.70
2018-02-17T02:39:43.197Z,17.67
2018-02-17T02:42:10.917Z,15.30
2018-02-17T02:44:38.751Z,14.37
2018-02-17T02:47:06.581Z,15.30
2018-02-17T02:49:34.194Z,14.10
2018-02-17T02:52:01.775Z,12.73
2018-02-17T02:54:29.368Z,16.67
2018-02-17T02:56:56.947Z,13.40
2018-02-17T02:59:24.651Z,12.30
2018-02-17T03:01:52.235Z,13.47
2018-02-17T03:04:19.935Z,15.33
2018-02-17T03:06:47.602Z,27.53
2018-02-17T03:09:15.344Z,26.43
2018-02-17T03:11:43.398Z,25.30
2018-02-17T03:14:11.378Z,23.93
2018-02-17T03:16:39.775Z,15.63
2018-02-17T03:19:07.397Z,13.30
2018-02-17T03:21:35.058Z,17.47
2018-02-17T03:24:03.799Z,53.97
2018-02-17T03:26:34.137Z,20.03
2018-02-17T03:29:01.753Z,15.30
2018-02-17T03:31:29.523Z,14.60
2018-02-17T03:33:57.144Z,16.30
2018-02-17T03:36:24.764Z,15.70
2018-02-17T03:38:52.366Z,12.47
2018-02-17T03:41:20.069Z,15.27
2018-02-17T03:43:47.674Z,17.43
2018-02-17T03:46:15.462Z,20.00
2018-02-17T03:48:43.060Z,20.90
2018-02-17T03:53:43.352Z,21.77
2018-02-17T03:56:10.951Z,18.10
2018-02-17T03:58:39.032Z,15.07
2018-02-17T04:01:06.664Z,14.30
2018-02-17T04:03:34.307Z,15.47
2018-02-17T04:06:01.965Z,14.50
2018-02-17T04:08:29.605Z,15.07
2018-02-17T04:10:57.210Z,17.30
2018-02-17T04:13:25.619Z,19.23
2018-02-17T04:15:53.229Z,27.97
2018-02-17T04:18:20.870Z,18.60
2018-02-17T04:20:48.483Z,16.57
2018-02-17T04:23:16.089Z,15.90
2018-02-17T04:25:43.679Z,14.53
2018-02-17T04:28:11.318Z,15.17
2018-02-17T04:30:38.987Z,13.87
2018-02-17T04:33:07.276Z,15.20
2018-02-17T04:35:34.982Z,14.23
2018-02-17T04:38:02.627Z,15.47
2018-02-17T04:40:36.504Z,15.13
2018-02-17T04:46:22.915Z,16.80
2018-02-17T04:48:53.943Z,16.50
2018-02-17T04:54:34.677Z,17.77
2018-02-17T04:57:18.289Z,15.60
2018-02-17T04:59:49.782Z,15.03
2018-02-17T05:02:19.129Z,14.13
2018-02-17T05:07:53.179Z,22.93
2018-02-17T05:10:20.922Z,14.40
2018-02-17T05:12:48.513Z,14.03
2018-02-17T05:15:16.641Z,16.30
2018-02-17T05:17:49.699Z,14.53
2018-02-17T05:20:29.102Z,13.90
2018-02-17T05:23:01.318Z,14.80
2018-02-17T05:28:43.030Z,12.67
2018-02-17T05:31:14.450Z,14.77
2018-02-17T05:33:47.485Z,16.40
2018-02-17T05:39:17.015Z,14.87
2018-02-17T05:41:50.110Z,15.77
2018-02-17T05:47:29.016Z,13.80
2018-02-17T05:49:56.695Z,15.13
2018-02-17T05:52:25.775Z,12.53
2018-02-17T05:54:53.399Z,16.80
2018-02-17T05:57:22.847Z,14.33
2018-02-17T05:59:50.540Z,15.27
2018-02-17T06:02:18.131Z,13.13
2018-02-17T06:04:45.768Z,15.10
2018-02-17T06:07:13.529Z,15.50
2018-02-17T06:09:41.123Z,13.47
2018-02-17T06:12:08.850Z,15.43
2018-02-17T06:14:36.748Z,15.73
2018-02-17T06:17:04.477Z,14.83
2018-02-17T06:19:32.217Z,16.90
2018-02-17T06:21:59.808Z,20.47
2018-02-17T06:24:27.400Z,41.67
2018-02-17T06:26:55.006Z,18.10
2018-02-17T06:29:22.569Z,25.93
2018-02-17T06:31:50.141Z,16.97
2018-02-17T06:34:17.761Z,34.27
2018-02-17T06:36:45.345Z,18.20
2018-02-17T06:39:13.173Z,31.37
2018-02-17T06:41:40.845Z,31.67
2018-02-17T06:44:08.422Z,24.00
2018-02-17T06:46:38.696Z,23.47
2018-02-17T06:49:06.709Z,26.40
2018-02-17T06:51:34.370Z,27.03
2018-02-17T06:54:02.113Z,26.47
2018-02-17T06:56:29.706Z,32.10
2018-02-17T06:58:57.289Z,24.53
2018-02-17T07:01:24.903Z,33.27
2018-02-17T07:03:57.286Z,34.07
2018-02-17T07:06:24.913Z,32.70
2018-02-17T07:08:53.725Z,25.30
2018-02-17T07:11:21.334Z,23.10
2018-02-17T07:13:49.352Z,18.40
2018-02-17T07:16:16.954Z,19.77
2018-02-17T07:18:44.545Z,23.50
2018-02-17T07:21:12.157Z,22.53
2018-02-17T07:23:40.586Z,26.87
2018-02-17T07:26:08.299Z,23.57
2018-02-17T07:28:35.910Z,21.53
2018-02-17T07:31:03.506Z,22.93
2018-02-17T07:33:32.728Z,21.47
2018-02-17T07:36:00.442Z,20.60
2018-02-17T07:38:28.053Z,23.00
2018-02-17T07:40:55.766Z,20.37
2018-02-17T07:43:23.414Z,20.10
2018-02-17T07:45:52.316Z,24.60
2018-02-17T07:48:19.914Z,25.67
2018-02-17T07:50:48.383Z,24.10
2018-02-17T07:53:15.957Z,23.67
2018-02-17T07:55:43.821Z,22.50
2018-02-17T07:58:11.800Z,22.70
2018-02-17T08:00:39.433Z,23.87
2018-02-17T08:03:07.333Z,23.33
2018-02-17T08:05:35.373Z,25.80
2018-02-17T08:08:03.025Z,24.43
2018-02-17T08:10:31.008Z,37.87
2018-02-17T08:12:58.649Z,26.00
2018-02-17T08:15:26.288Z,22.93
2018-02-17T08:17:53.951Z,25.07
2018-02-17T08:20:21.597Z,19.87
2018-02-17T08:22:49.174Z,23.67
2018-02-17T08:25:16.811Z,29.30
2018-02-17T08:27:44.444Z,30.73
2018-02-17T08:30:12.278Z,25.27
2018-02-17T08:32:39.932Z,25.37
2018-02-17T08:35:07.903Z,23.43
2018-02-17T08:37:36.010Z,27.50
2018-02-17T08:40:03.688Z,24.97
2018-02-17T08:42:31.325Z,21.60
2018-02-17T08:44:58.923Z,20.90
2018-02-17T08:47:27.497Z,22.43
2018-02-17T08:49:55.141Z,22.57
2018-02-17T08:52:23.107Z,22.30
2018-02-17T08:54:50.694Z,20.30
2018-02-17T08:57:18.357Z,18.87
2018-02-17T08:59:46.006Z,17.63
2018-02-17T09:02:13.627Z,19.07
2018-02-17T09:04:41.261Z,19.73
2018-02-17T09:07:10.879Z,19.73
2018-02-17T09:09:38.628Z,17.33
2018-02-17T09:12:06.369Z,17.10
2018-02-17T09:14:34.013Z,19.80
2018-02-17T09:17:01.655Z,19.43
2018-02-17T09:19:29.256Z,15.97
2018-02-17T09:21:56.913Z,17.03
2018-02-17T09:24:24.517Z,17.27
2018-02-17T09:26:52.141Z,18.43
2018-02-17T09:29:19.728Z,16.33
2018-02-17T09:31:47.295Z,17.90
2018-02-17T09:34:14.911Z,19.17
2018-02-17T09:36:42.588Z,16.77
2018-02-17T09:39:11.070Z,18.47
2018-02-17T09:41:38.891Z,19.60
2018-02-17T09:44:06.507Z,18.60
2018-02-17T09:46:34.125Z,20.47
2018-02-17T09:49:01.744Z,21.17
2018-02-17T09:51:29.984Z,33.87
2018-02-17T09:53:57.754Z,39.10
2018-02-17T09:56:25.399Z,36.30
2018-02-17T09:58:53.053Z,31.17
2018-02-17T10:01:20.707Z,19.60
2018-02-17T10:03:48.279Z,20.67
2018-02-17T10:06:16.054Z,21.90
2018-02-17T10:08:43.628Z,20.03
2018-02-17T10:11:11.830Z,22.83
2018-02-17T10:13:39.502Z,18.83
2018-02-17T10:16:07.155Z,17.90
2018-02-17T10:18:34.746Z,17.27
2018-02-17T10:21:02.557Z,18.30
2018-02-17T10:23:30.328Z,15.30
2018-02-17T10:25:58.143Z,15.60
2018-02-17T10:28:25.794Z,15.70
2018-02-17T10:30:53.389Z,19.37
2018-02-17T10:33:21.435Z,17.10
2018-02-17T10:35:49.114Z,17.73
2018-02-17T10:38:16.789Z,16.73
2018-02-17T10:40:44.378Z,14.80
2018-02-17T10:43:12.251Z,17.30
2018-02-17T10:45:39.889Z,16.73
2018-02-17T10:48:07.505Z,17.90
2018-02-17T10:50:35.118Z,20.70
2018-02-17T10:53:02.751Z,19.63
2018-02-17T10:55:36.124Z,19.23
2018-02-17T10:58:03.762Z,19.77
2018-02-17T11:00:32.030Z,17.47
2018-02-17T11:03:04.879Z,17.07
2018-02-17T11:05:37.335Z,17.50
2018-02-17T11:08:10.339Z,25.70
2018-02-17T11:10:49.079Z,26.77
2018-02-17T11:13:23.142Z,22.20
2018-02-17T11:15:51.265Z,20.10
2018-02-17T11:18:20.516Z,22.17
2018-02-17T11:20:48.599Z,18.33
2018-02-17T11:23:17.268Z,20.77
2018-02-17T11:25:44.856Z,18.87
2018-02-17T11:28:16.284Z,20.47
2018-02-17T11:30:43.883Z,25.60
2018-02-17T11:33:13.052Z,26.17
2018-02-17T11:35:42.032Z,20.80
2018-02-17T11:38:11.581Z,20.00
2018-02-17T11:40:39.694Z,18.40
2018-02-17T11:43:09.426Z,18.70
2018-02-17T11:45:37.150Z,16.67
2018-02-17T11:48:06.031Z,18.93
2018-02-17T11:50:33.708Z,19.87
2018-02-17T11:53:03.409Z,19.17
2018-02-17T11:55:31.132Z,17.67
2018-02-17T11:57:59.080Z,18.80
2018-02-17T12:00:26.868Z,19.57
2018-02-17T12:02:54.515Z,18.90
2018-02-17T12:05:30.120Z,16.63
2018-02-17T12:08:02.217Z,20.30
2018-02-17T12:10:36.133Z,21.60
2018-02-17T12:13:09.392Z,20.40
2018-02-17T12:15:44.627Z,21.63
2018-02-17T12:18:12.288Z,19.27
2018-02-17T12:20:39.852Z,21.33
2018-02-17T12:23:07.811Z,18.43
2018-02-17T12:25:35.489Z,23.60
2018-02-17T12:28:03.913Z,21.03
2018-02-17T12:30:31.845Z,21.10
2018-02-17T12:32:59.469Z,22.77
2018-02-17T12:35:27.409Z,20.03
2018-02-17T12:37:55.065Z,19.33
2018-02-17T12:40:22.973Z,21.07
2018-02-17T12:42:50.669Z,22.00
2018-02-17T12:45:18.283Z,22.60
2018-02-17T12:47:45.876Z,22.60
2018-02-17T12:50:13.639Z,21.33
2018-02-17T12:52:41.232Z,22.43
2018-02-17T12:55:09.614Z,21.70
2018-02-17T12:57:37.249Z,21.20
2018-02-17T13:00:04.927Z,23.17
2018-02-17T13:02:32.528Z,22.33
2018-02-17T13:05:00.442Z,22.07
2018-02-17T13:07:35.208Z,30.50
2018-02-17T13:10:07.807Z,23.87
2018-02-17T13:12:41.080Z,24.40
2018-02-17T13:15:27.115Z,28.17
2018-02-17T13:17:54.755Z,26.10
2018-02-17T13:20:23.343Z,26.70
2018-02-17T13:22:50.920Z,23.60
2018-02-17T13:25:18.587Z,23.60
2018-02-17T13:27:46.184Z,21.43
2018-02-17T13:30:13.784Z,20.87
2018-02-17T13:32:41.550Z,21.73
2018-02-17T13:35:09.578Z,24.27
2018-02-17T13:37:37.235Z,21.70
2018-02-17T13:40:04.874Z,25.70
2018-02-17T13:42:33.558Z,23.10
2018-02-17T13:45:02.144Z,24.03
2018-02-17T13:47:29.759Z,24.30
2018-02-17T13:49:57.383Z,21.80
2018-02-17T13:52:25.060Z,27.00
2018-02-17T13:54:53.189Z,26.30
2018-02-17T13:57:21.001Z,24.67
2018-02-17T13:59:48.645Z,26.30
2018-02-17T14:02:16.266Z,24.40
2018-02-17T14:04:43.876Z,28.17
2018-02-17T14:07:12.853Z,29.47
2018-02-17T14:09:40.775Z,23.27
2018-02-17T14:12:08.354Z,24.17
2018-02-17T14:14:36.054Z,26.80
2018-02-17T14:17:08.098Z,19.03
2018-02-17T14:19:38.456Z,26.17
2018-02-17T14:22:06.025Z,24.10
2018-02-17T14:24:34.503Z,24.70
2018-02-17T14:27:02.182Z,23.93
2018-02-17T14:29:29.842Z,28.80
2018-02-17T14:31:57.447Z,27.30
2018-02-17T14:34:25.071Z,28.40
2018-02-17T14:36:54.438Z,29.90
2018-02-17T14:39:24.471Z,27.33
2018-02-17T14:41:52.137Z,26.07
2018-02-17T14:44:19.986Z,26.93
2018-02-17T14:46:54.413Z,27.17
2018-02-17T14:49:23.469Z,27.87
2018-02-17T14:51:51.087Z,27.27
2018-02-17T14:54:19.207Z,28.33
2018-02-17T14:56:47.111Z,25.13
2018-02-17T14:59:14.990Z,30.87
2018-02-17T15:01:43.512Z,29.50
2018-02-17T15:04:11.649Z,30.10
2018-02-17T15:06:39.242Z,27.50
2018-02-17T15:09:06.953Z,27.70
2018-02-17T15:11:35.633Z,32.83
2018-02-17T15:14:03.648Z,30.20
2018-02-17T15:16:39.107Z,40.60
2018-02-17T15:19:13.074Z,34.43
2018-02-17T15:21:47.250Z,31.10
2018-02-17T15:24:18.377Z,31.30
2018-02-17T15:26:52.559Z,34.30
2018-02-17T15:29:23.847Z,44.47
2018-02-17T15:31:51.485Z,29.30
2018-02-17T15:34:19.128Z,39.87
2018-02-17T15:36:46.714Z,28.40
2018-02-17T15:39:14.647Z,33.47
2018-02-17T15:41:46.702Z,33.80
2018-02-17T15:44:21.690Z,34.57
2018-02-17T15:46:49.293Z,33.37
2018-02-17T15:49:17.307Z,31.63
2018-02-17T15:51:45.368Z,33.03
2018-02-17T15:54:13.539Z,30.77
2018-02-17T15:56:46.150Z,24.70
2018-02-17T15:59:14.465Z,27.80
2018-02-17T16:01:42.107Z,26.50
2018-02-17T16:04:09.681Z,25.40
2018-02-17T16:06:37.280Z,25.73
2018-02-17T16:09:05.370Z,28.27
2018-02-17T16:11:33.080Z,27.30
2018-02-17T16:14:03.778Z,26.37
2018-02-17T16:16:31.324Z,25.57
2018-02-17T16:18:58.920Z,26.00
2018-02-17T16:21:26.502Z,22.57
2018-02-17T16:23:58.498Z,20.80
2018-02-17T16:26:31.280Z,17.30
2018-02-17T16:29:04.813Z,19.00
2018-02-17T16:31:39.628Z,18.00
2018-02-17T16:34:08.697Z,18.57
2018-02-17T16:36:43.157Z,13.57
2018-02-17T16:39:17.401Z,13.97
2018-02-17T16:41:51.469Z,12.90
2018-02-17T16:44:26.685Z,12.10
2018-02-17T16:46:54.276Z,12.47
2018-02-17T16:49:21.926Z,12.13
2018-02-17T16:51:49.559Z,11.70
2018-02-17T16:54:17.179Z,13.33
2018-02-17T16:56:44.787Z,12.77
2018-02-17T16:59:12.416Z,11.43
2018-02-17T17:01:39.988Z,12.63
2018-02-17T17:04:07.618Z,12.10
2018-02-17T17:06:35.210Z,15.33
2018-02-17T17:09:04.995Z,12.17
2018-02-17T17:11:32.617Z,10.20
2018-02-17T17:14:00.231Z,13.00
2018-02-17T17:16:28.130Z,11.20
2018-02-17T17:18:55.693Z,11.57
2018-02-17T17:21:23.655Z,12.40
2018-02-17T17:23:51.309Z,11.17
2018-02-17T17:26:18.939Z,13.20
2018-02-17T17:28:46.580Z,14.30
2018-02-17T17:31:14.161Z,12.00
2018-02-17T17:33:41.741Z,26.57
2018-02-17T17:36:09.477Z,11.07
2018-02-17T17:38:37.045Z,12.07
2018-02-17T17:41:04.858Z,9.57
2018-02-17T17:43:32.466Z,9.10
2018-02-17T17:46:00.414Z,9.60
2018-02-17T17:48:27.999Z,11.20
2018-02-17T17:50:55.577Z,9.27
2018-02-17T17:53:23.546Z,11.00
2018-02-17T17:55:51.112Z,9.83
2018-02-17T17:58:21.091Z,9.17
2018-02-17T18:00:48.654Z,9.30
2018-02-17T18:03:16.262Z,10.00
2018-02-17T18:05:43.909Z,10.13
2018-02-17T18:08:11.518Z,10.93
2018-02-17T18:10:39.129Z,8.73
2018-02-17T18:13:06.862Z,9.57
2018-02-17T18:15:34.603Z,14.67
2018-02-17T18:18:02.220Z,11.70
2018-02-17T18:20:30.513Z,8.90
2018-02-17T18:22:58.113Z,11.37
2018-02-17T18:25:26.098Z,10.00
2018-02-17T18:27:54.033Z,11.90
2018-02-17T18:30:21.719Z,11.33
2018-02-17T18:32:49.293Z,10.80
2018-02-17T18:35:17.118Z,9.13
2018-02-17T18:37:44.723Z,9.07
2018-02-17T18:40:12.285Z,9.13
2018-02-17T18:42:39.920Z,10.63
2018-02-17T18:45:07.692Z,8.90
2018-02-17T18:47:36.368Z,11.90
2018-02-17T18:50:03.941Z,11.20
2018-02-17T18:52:31.489Z,16.30
2018-02-17T18:54:59.066Z,10.63
2018-02-17T18:57:26.694Z,15.40
2018-02-17T18:59:59.500Z,25.37
2018-02-17T19:02:27.268Z,16.37
2018-02-17T19:05:00.393Z,13.67
2018-02-17T19:07:36.485Z,10.20
2018-02-17T19:10:14.027Z,11.43
2018-02-17T19:12:49.168Z,15.47
2018-02-17T19:15:22.963Z,20.50
2018-02-17T19:17:57.068Z,16.53
2018-02-17T19:20:29.766Z,14.87
2018-02-17T19:23:00.798Z,18.50
2018-02-17T19:25:33.451Z,17.83
2018-02-17T19:28:06.112Z,21.60
2018-02-17T19:30:38.475Z,12.40
2018-02-17T19:33:13.568Z,12.30
2018-02-17T19:35:42.380Z,11.70
2018-02-17T19:38:10.053Z,8.53
2018-02-17T19:40:37.675Z,10.10
2018-02-17T19:43:05.430Z,9.90
2018-02-17T19:45:35.726Z,14.57
2018-02-17T19:48:04.352Z,38.20
2018-02-17T19:50:32.699Z,14.83
2018-02-17T19:53:00.982Z,21.33
2018-02-17T19:55:29.733Z,20.20
2018-02-17T19:57:59.846Z,19.70
2018-02-17T20:00:27.529Z,12.17
2018-02-17T20:02:55.100Z,12.43
2018-02-17T20:05:23.022Z,11.73
2018-02-17T20:07:52.653Z,9.57
2018-02-17T20:10:20.816Z,9.13
2018-02-17T20:12:50.507Z,9.70
2018-02-17T20:15:19.569Z,8.90
2018-02-17T20:17:47.220Z,8.83
2018-02-17T20:20:19.511Z,9.50
2018-02-17T20:22:47.072Z,11.23
2018-02-17T20:25:15.562Z,9.70
2018-02-17T20:27:43.624Z,11.07
2018-02-17T20:30:11.459Z,11.93
2018-02-17T20:32:39.116Z,10.70
2018-02-17T20:35:06.891Z,10.00
2018-02-17T20:37:34.505Z,8.87
2018-02-17T20:40:02.489Z,8.30
2018-02-17T20:42:30.085Z,7.53
2018-02-17T20:44:57.688Z,11.83
2018-02-17T20:47:25.524Z,12.53
2018-02-17T20:49:53.307Z,6.90
2018-02-17T20:52:20.883Z,7.57
2018-02-17T20:54:48.478Z,7.33
2018-02-17T20:57:16.352Z,9.00
2018-02-17T20:59:43.957Z,8.50
2018-02-17T21:02:11.905Z,7.93
2018-02-17T21:04:39.868Z,13.40
2018-02-17T21:07:07.846Z,21.43
2018-02-17T21:09:36.185Z,16.27
2018-02-17T21:12:03.850Z,15.17
2018-02-17T21:14:31.449Z,8.73
2018-02-17T21:16:59.045Z,7.77
2018-02-17T21:19:26.895Z,7.93
2018-02-17T21:21:54.476Z,7.60
2018-02-17T21:24:22.599Z,7.93
2018-02-17T21:26:50.247Z,7.80
2018-02-17T21:29:17.929Z,8.10
2018-02-17T21:31:45.488Z,7.40
2018-02-17T21:34:13.494Z,53.23
2018-02-17T21:36:41.083Z,14.93
2018-02-17T21:39:08.961Z,9.50
2018-02-17T21:41:36.592Z,9.33
2018-02-17T21:44:04.218Z,9.20
2018-02-17T21:46:31.848Z,9.23
2018-02-17T21:48:59.497Z,10.27
2018-02-17T21:51:31.372Z,14.80
2018-02-17T21:53:59.000Z,9.37
2018-02-17T21:56:26.641Z,9.10
2018-02-17T21:58:54.291Z,11.93
2018-02-17T22:01:21.921Z,10.40
2018-02-17T22:03:49.562Z,11.03
2018-02-17T22:06:17.185Z,11.00
2018-02-17T22:08:44.759Z,11.97
2018-02-17T22:11:12.669Z,12.87
2018-02-17T22:13:40.288Z,11.60
2018-02-17T22:16:07.928Z,12.60
2018-02-17T22:18:35.558Z,13.00
2018-02-17T22:21:03.243Z,13.83
2018-02-17T22:23:31.249Z,12.97
2018-02-17T22:25:58.828Z,13.00
2018-02-17T22:28:26.457Z,14.10
2018-02-17T22:30:55.408Z,14.13
2018-02-17T22:33:23.149Z,16.33
2018-02-17T22:35:50.964Z,13.80
2018-02-17T22:38:18.537Z,14.60
2018-02-17T22:40:46.123Z,12.50
2018-02-17T22:43:13.972Z,16.20
2018-02-17T22:45:41.617Z,16.30
2018-02-17T22:48:09.244Z,17.70
2018-02-17T22:50:37.287Z,15.37
2018-02-17T22:53:04.948Z,16.37
2018-02-17T22:55:32.685Z,15.43
2018-02-17T22:58:00.285Z,16.33
2018-02-17T23:00:31.621Z,17.40
2018-02-17T23:02:59.257Z,17.93
2018-02-17T23:05:27.374Z,16.57
2018-02-17T23:07:55.008Z,16.70
2018-02-17T23:10:22.682Z,16.23
2018-02-17T23:12:50.357Z,13.87
2018-02-17T23:15:18.858Z,16.10
2018-02-17T23:17:46.552Z,12.63
2018-02-17T23:20:15.892Z,14.57
2018-02-17T23:22:43.689Z,14.27
2018-02-17T23:25:11.715Z,15.27
2018-02-17T23:27:39.561Z,15.50
2018-02-17T23:30:07.117Z,14.80
2018-02-17T23:32:35.920Z,15.97
2018-02-17T23:35:06.155Z,13.87
2018-02-17T23:37:33.800Z,15.40
2018-02-17T23:40:01.410Z,15.33
2018-02-17T23:42:30.545Z,15.30
2018-02-17T23:44:59.854Z,13.10
2018-02-17T23:47:27.519Z,15.30
2018-02-17T23:49:55.122Z,13.50
2018-02-17T23:52:22.687Z,15.43
2018-02-17T23:54:50.461Z,14.90
2018-02-17T23:57:18.127Z,14.87
2018-02-17T23:59:45.706Z,15.10
